sensor_id;sensor_type;location;lat;lon;timestamp;temperature;humidity
56172;DHT22;42052;41.634;-0.946;2022-10-12T00:02:05;25.30;52.10
56172;DHT22;42052;41.634;-0.946;2022-10-12T00:04:30;25.20;52.00
56172;DHT22;42052;41.634;-0.946;2022-10-12T00:06:56;25.20;52.00
56172;DHT22;42052;41.634;-0.946;2022-10-12T00:09:22;25.20;52.00
56172;DHT22;42052;41.634;-0.946;2022-10-12T00:11:48;25.20;52.00
56172;DHT22;42052;41.634;-0.946;2022-10-12T00:14:14;25.30;52.10
56172;DHT22;42052;41.634;-0.946;2022-10-12T00:16:40;25.30;52.10
56172;DHT22;42052;41.634;-0.946;2022-10-12T00:19:05;25.20;52.00
56172;DHT22;42052;41.634;-0.946;2022-10-12T00:21:31;25.20;52.00
56172;DHT22;42052;41.634;-0.946;2022-10-12T00:23:59;25.20;52.00
56172;DHT22;42052;41.634;-0.946;2022-10-12T00:26:27;25.20;52.00
56172;DHT22;42052;41.634;-0.946;2022-10-12T00:28:55;25.20;52.10
56172;DHT22;42052;41.634;-0.946;2022-10-12T00:31:22;25.20;52.00
56172;DHT22;42052;41.634;-0.946;2022-10-12T00:33:48;25.20;52.10
56172;DHT22;42052;41.634;-0.946;2022-10-12T00:36:24;25.20;52.00
56172;DHT22;42052;41.634;-0.946;2022-10-12T00:38:52;25.20;52.10
56172;DHT22;42052;41.634;-0.946;2022-10-12T00:41:20;25.20;52.00
56172;DHT22;42052;41.634;-0.946;2022-10-12T00:43:47;25.20;52.10
56172;DHT22;42052;41.634;-0.946;2022-10-12T00:48:44;25.20;52.00
56172;DHT22;42052;41.634;-0.946;2022-10-12T00:51:13;25.20;52.00
56172;DHT22;42052;41.634;-0.946;2022-10-12T00:53:46;25.20;52.00
56172;DHT22;42052;41.634;-0.946;2022-10-12T00:56:17;25.20;52.00
56172;DHT22;42052;41.634;-0.946;2022-10-12T00:58:45;25.20;52.10
56172;DHT22;42052;41.634;-0.946;2022-10-12T01:01:12;25.20;52.00
56172;DHT22;42052;41.634;-0.946;2022-10-12T01:03:38;25.20;52.00
56172;DHT22;42052;41.634;-0.946;2022-10-12T01:06:06;25.20;52.10
56172;DHT22;42052;41.634;-0.946;2022-10-12T01:08:32;25.20;52.00
56172;DHT22;42052;41.634;-0.946;2022-10-12T01:10:58;25.20;52.00
56172;DHT22;42052;41.634;-0.946;2022-10-12T01:13:24;25.20;52.00
56172;DHT22;42052;41.634;-0.946;2022-10-12T01:21:52;25.20;52.00
56172;DHT22;42052;41.634;-0.946;2022-10-12T01:27:17;25.20;51.90
56172;DHT22;42052;41.634;-0.946;2022-10-12T01:43:41;25.20;52.00
56172;DHT22;42052;41.634;-0.946;2022-10-12T01:48:58;25.20;52.00
56172;DHT22;42052;41.634;-0.946;2022-10-12T01:51:37;25.20;52.00
56172;DHT22;42052;41.634;-0.946;2022-10-12T01:57:24;25.20;52.00
56172;DHT22;42052;41.634;-0.946;2022-10-12T02:00:07;25.20;52.00
56172;DHT22;42052;41.634;-0.946;2022-10-12T02:03:00;25.10;52.00
56172;DHT22;42052;41.634;-0.946;2022-10-12T02:10:42;25.20;52.30
56172;DHT22;42052;41.634;-0.946;2022-10-12T02:13:10;25.20;52.00
56172;DHT22;42052;41.634;-0.946;2022-10-12T02:15:39;25.20;52.10
56172;DHT22;42052;41.634;-0.946;2022-10-12T02:18:08;25.20;52.00
56172;DHT22;42052;41.634;-0.946;2022-10-12T02:20:37;25.20;52.10
56172;DHT22;42052;41.634;-0.946;2022-10-12T02:23:03;25.10;52.00
56172;DHT22;42052;41.634;-0.946;2022-10-12T02:25:30;25.10;52.00
56172;DHT22;42052;41.634;-0.946;2022-10-12T02:28:02;25.10;52.00
56172;DHT22;42052;41.634;-0.946;2022-10-12T02:30:36;25.20;52.00
56172;DHT22;42052;41.634;-0.946;2022-10-12T02:36:14;25.10;52.00
56172;DHT22;42052;41.634;-0.946;2022-10-12T02:38:58;25.20;52.00
56172;DHT22;42052;41.634;-0.946;2022-10-12T02:41:34;25.20;52.00
56172;DHT22;42052;41.634;-0.946;2022-10-12T02:44:03;25.10;52.00
56172;DHT22;42052;41.634;-0.946;2022-10-12T02:46:31;25.20;52.00
56172;DHT22;42052;41.634;-0.946;2022-10-12T02:48:59;25.10;52.00
56172;DHT22;42052;41.634;-0.946;2022-10-12T02:51:27;25.10;52.00
56172;DHT22;42052;41.634;-0.946;2022-10-12T02:53:54;25.10;52.00
56172;DHT22;42052;41.634;-0.946;2022-10-12T02:56:21;25.10;52.00
56172;DHT22;42052;41.634;-0.946;2022-10-12T02:58:47;25.10;52.00
56172;DHT22;42052;41.634;-0.946;2022-10-12T03:01:14;25.10;52.00
56172;DHT22;42052;41.634;-0.946;2022-10-12T03:03:44;25.10;52.00
56172;DHT22;42052;41.634;-0.946;2022-10-12T03:06:10;25.10;52.00
56172;DHT22;42052;41.634;-0.946;2022-10-12T03:08:36;25.20;52.00
56172;DHT22;42052;41.634;-0.946;2022-10-12T03:11:06;25.10;52.00
56172;DHT22;42052;41.634;-0.946;2022-10-12T03:13:33;25.10;51.90
56172;DHT22;42052;41.634;-0.946;2022-10-12T03:16:07;25.10;52.00
56172;DHT22;42052;41.634;-0.946;2022-10-12T03:18:33;25.10;51.90
56172;DHT22;42052;41.634;-0.946;2022-10-12T03:21:00;25.20;52.00
56172;DHT22;42052;41.634;-0.946;2022-10-12T03:23:27;25.10;52.00
56172;DHT22;42052;41.634;-0.946;2022-10-12T03:25:53;25.10;51.90
56172;DHT22;42052;41.634;-0.946;2022-10-12T03:28:19;25.10;51.90
56172;DHT22;42052;41.634;-0.946;2022-10-12T03:30:45;25.10;52.00
56172;DHT22;42052;41.634;-0.946;2022-10-12T03:33:11;25.10;52.30
56172;DHT22;42052;41.634;-0.946;2022-10-12T03:35:37;25.10;51.90
56172;DHT22;42052;41.634;-0.946;2022-10-12T03:38:03;25.10;51.80
56172;DHT22;42052;41.634;-0.946;2022-10-12T03:40:30;25.10;51.80
56172;DHT22;42052;41.634;-0.946;2022-10-12T03:42:55;25.10;52.60
56172;DHT22;42052;41.634;-0.946;2022-10-12T03:45:21;25.10;51.80
56172;DHT22;42052;41.634;-0.946;2022-10-12T03:47:47;25.10;51.80
56172;DHT22;42052;41.634;-0.946;2022-10-12T03:50:13;25.10;51.80
56172;DHT22;42052;41.634;-0.946;2022-10-12T03:52:39;25.10;51.80
56172;DHT22;42052;41.634;-0.946;2022-10-12T03:55:05;25.10;51.80
56172;DHT22;42052;41.634;-0.946;2022-10-12T03:57:31;25.10;51.70
56172;DHT22;42052;41.634;-0.946;2022-10-12T03:59:57;25.10;51.70
56172;DHT22;42052;41.634;-0.946;2022-10-12T04:02:23;25.10;51.70
56172;DHT22;42052;41.634;-0.946;2022-10-12T04:04:49;25.10;51.70
56172;DHT22;42052;41.634;-0.946;2022-10-12T04:07:14;25.10;51.70
56172;DHT22;42052;41.634;-0.946;2022-10-12T04:09:40;25.10;51.70
56172;DHT22;42052;41.634;-0.946;2022-10-12T04:12:06;25.10;51.80
56172;DHT22;42052;41.634;-0.946;2022-10-12T04:14:32;25.00;51.70
56172;DHT22;42052;41.634;-0.946;2022-10-12T04:16:58;25.00;51.70
56172;DHT22;42052;41.634;-0.946;2022-10-12T04:19:24;25.00;51.70
56172;DHT22;42052;41.634;-0.946;2022-10-12T04:21:50;25.10;51.70
56172;DHT22;42052;41.634;-0.946;2022-10-12T04:24:16;25.10;51.70
56172;DHT22;42052;41.634;-0.946;2022-10-12T04:26:42;25.00;51.60
56172;DHT22;42052;41.634;-0.946;2022-10-12T04:29:07;25.00;51.60
56172;DHT22;42052;41.634;-0.946;2022-10-12T04:31:35;25.00;51.60
56172;DHT22;42052;41.634;-0.946;2022-10-12T04:34:01;25.00;51.60
56172;DHT22;42052;41.634;-0.946;2022-10-12T04:36:27;25.00;51.60
56172;DHT22;42052;41.634;-0.946;2022-10-12T04:38:53;25.00;51.50
56172;DHT22;42052;41.634;-0.946;2022-10-12T04:41:19;25.00;51.60
56172;DHT22;42052;41.634;-0.946;2022-10-12T04:43:45;25.00;51.60
56172;DHT22;42052;41.634;-0.946;2022-10-12T04:46:11;25.10;51.60
56172;DHT22;42052;41.634;-0.946;2022-10-12T04:48:37;25.00;51.50
56172;DHT22;42052;41.634;-0.946;2022-10-12T04:51:04;25.00;51.50
56172;DHT22;42052;41.634;-0.946;2022-10-12T04:53:30;25.00;51.60
56172;DHT22;42052;41.634;-0.946;2022-10-12T04:55:56;25.00;51.60
56172;DHT22;42052;41.634;-0.946;2022-10-12T04:58:22;25.00;51.50
56172;DHT22;42052;41.634;-0.946;2022-10-12T05:00:49;25.00;51.60
56172;DHT22;42052;41.634;-0.946;2022-10-12T05:03:15;25.00;51.60
56172;DHT22;42052;41.634;-0.946;2022-10-12T05:05:43;25.00;51.50
56172;DHT22;42052;41.634;-0.946;2022-10-12T05:08:09;25.00;51.50
56172;DHT22;42052;41.634;-0.946;2022-10-12T05:10:35;25.00;51.60
56172;DHT22;42052;41.634;-0.946;2022-10-12T05:13:01;25.00;51.50
56172;DHT22;42052;41.634;-0.946;2022-10-12T05:15:26;25.00;51.50
56172;DHT22;42052;41.634;-0.946;2022-10-12T05:17:53;25.00;51.50
56172;DHT22;42052;41.634;-0.946;2022-10-12T05:20:19;25.00;51.50
56172;DHT22;42052;41.634;-0.946;2022-10-12T05:22:44;25.00;51.50
56172;DHT22;42052;41.634;-0.946;2022-10-12T05:25:10;25.00;51.50
56172;DHT22;42052;41.634;-0.946;2022-10-12T05:27:36;25.00;51.40
56172;DHT22;42052;41.634;-0.946;2022-10-12T05:30:03;25.00;52.20
56172;DHT22;42052;41.634;-0.946;2022-10-12T05:32:29;25.00;51.50
56172;DHT22;42052;41.634;-0.946;2022-10-12T05:34:55;25.00;51.50
56172;DHT22;42052;41.634;-0.946;2022-10-12T05:37:21;25.00;51.40
56172;DHT22;42052;41.634;-0.946;2022-10-12T05:39:47;25.00;51.40
56172;DHT22;42052;41.634;-0.946;2022-10-12T05:42:15;25.00;51.50
56172;DHT22;42052;41.634;-0.946;2022-10-12T05:44:41;25.00;51.40
56172;DHT22;42052;41.634;-0.946;2022-10-12T05:47:07;25.00;51.40
56172;DHT22;42052;41.634;-0.946;2022-10-12T05:49:33;25.00;51.40
56172;DHT22;42052;41.634;-0.946;2022-10-12T05:51:58;25.00;51.80
56172;DHT22;42052;41.634;-0.946;2022-10-12T05:54:24;25.00;51.40
56172;DHT22;42052;41.634;-0.946;2022-10-12T05:56:51;25.00;51.30
56172;DHT22;42052;41.634;-0.946;2022-10-12T05:59:16;25.00;51.40
56172;DHT22;42052;41.634;-0.946;2022-10-12T06:01:42;25.00;51.40
56172;DHT22;42052;41.634;-0.946;2022-10-12T06:04:08;25.00;51.40
56172;DHT22;42052;41.634;-0.946;2022-10-12T06:06:35;25.00;51.40
56172;DHT22;42052;41.634;-0.946;2022-10-12T06:09:01;25.00;51.40
56172;DHT22;42052;41.634;-0.946;2022-10-12T06:11:27;25.00;51.30
56172;DHT22;42052;41.634;-0.946;2022-10-12T06:13:53;25.00;51.40
56172;DHT22;42052;41.634;-0.946;2022-10-12T06:16:19;25.00;51.40
56172;DHT22;42052;41.634;-0.946;2022-10-12T06:18:45;24.90;51.30
56172;DHT22;42052;41.634;-0.946;2022-10-12T06:21:11;25.00;51.30
56172;DHT22;42052;41.634;-0.946;2022-10-12T06:23:37;25.00;51.30
56172;DHT22;42052;41.634;-0.946;2022-10-12T06:26:03;24.90;51.30
56172;DHT22;42052;41.634;-0.946;2022-10-12T06:28:29;25.00;51.30
56172;DHT22;42052;41.634;-0.946;2022-10-12T06:30:56;24.90;51.30
56172;DHT22;42052;41.634;-0.946;2022-10-12T06:33:23;24.90;51.30
56172;DHT22;42052;41.634;-0.946;2022-10-12T06:35:50;24.90;51.30
56172;DHT22;42052;41.634;-0.946;2022-10-12T06:38:16;24.90;51.30
56172;DHT22;42052;41.634;-0.946;2022-10-12T06:40:42;24.90;51.30
56172;DHT22;42052;41.634;-0.946;2022-10-12T06:43:08;24.90;51.30
56172;DHT22;42052;41.634;-0.946;2022-10-12T06:45:34;24.90;51.20
56172;DHT22;42052;41.634;-0.946;2022-10-12T06:48:00;24.90;51.30
56172;DHT22;42052;41.634;-0.946;2022-10-12T06:50:26;25.00;51.30
56172;DHT22;42052;41.634;-0.946;2022-10-12T06:52:53;24.90;51.20
56172;DHT22;42052;41.634;-0.946;2022-10-12T06:55:19;24.90;51.30
56172;DHT22;42052;41.634;-0.946;2022-10-12T06:57:45;25.00;51.30
56172;DHT22;42052;41.634;-0.946;2022-10-12T07:00:12;24.90;51.50
56172;DHT22;42052;41.634;-0.946;2022-10-12T07:02:38;24.90;51.20
56172;DHT22;42052;41.634;-0.946;2022-10-12T07:05:05;25.00;51.20
56172;DHT22;42052;41.634;-0.946;2022-10-12T07:07:33;24.90;51.20
56172;DHT22;42052;41.634;-0.946;2022-10-12T07:09:59;24.90;51.20
56172;DHT22;42052;41.634;-0.946;2022-10-12T07:12:26;24.90;51.30
56172;DHT22;42052;41.634;-0.946;2022-10-12T07:14:52;24.90;51.30
56172;DHT22;42052;41.634;-0.946;2022-10-12T07:17:20;24.90;51.30
56172;DHT22;42052;41.634;-0.946;2022-10-12T07:19:46;24.90;51.30
56172;DHT22;42052;41.634;-0.946;2022-10-12T07:22:12;24.90;51.30
56172;DHT22;42052;41.634;-0.946;2022-10-12T07:24:38;24.90;51.30
56172;DHT22;42052;41.634;-0.946;2022-10-12T07:27:06;24.90;51.20
56172;DHT22;42052;41.634;-0.946;2022-10-12T07:29:34;24.90;51.20
56172;DHT22;42052;41.634;-0.946;2022-10-12T07:32:01;24.90;51.40
56172;DHT22;42052;41.634;-0.946;2022-10-12T07:34:27;24.80;51.30
56172;DHT22;42052;41.634;-0.946;2022-10-12T07:36:54;24.90;51.10
56172;DHT22;42052;41.634;-0.946;2022-10-12T07:39:20;24.80;50.90
56172;DHT22;42052;41.634;-0.946;2022-10-12T07:41:48;24.80;50.70
56172;DHT22;42052;41.634;-0.946;2022-10-12T07:44:14;24.70;50.50
56172;DHT22;42052;41.634;-0.946;2022-10-12T07:46:40;24.70;50.60
56172;DHT22;42052;41.634;-0.946;2022-10-12T07:49:06;24.70;50.60
56172;DHT22;42052;41.634;-0.946;2022-10-12T07:51:32;24.70;50.60
56172;DHT22;42052;41.634;-0.946;2022-10-12T07:53:58;24.70;50.80
56172;DHT22;42052;41.634;-0.946;2022-10-12T07:56:27;24.60;50.70
56172;DHT22;42052;41.634;-0.946;2022-10-12T07:58:54;24.60;50.90
56172;DHT22;42052;41.634;-0.946;2022-10-12T08:01:23;24.60;50.90
56172;DHT22;42052;41.634;-0.946;2022-10-12T08:03:50;24.50;51.00
56172;DHT22;42052;41.634;-0.946;2022-10-12T08:06:18;24.50;51.20
56172;DHT22;42052;41.634;-0.946;2022-10-12T08:08:45;24.50;51.30
56172;DHT22;42052;41.634;-0.946;2022-10-12T08:11:12;24.50;51.50
56172;DHT22;42052;41.634;-0.946;2022-10-12T08:13:39;24.50;51.60
56172;DHT22;42052;41.634;-0.946;2022-10-12T08:16:08;24.40;51.80
56172;DHT22;42052;41.634;-0.946;2022-10-12T08:18:34;24.40;52.00
56172;DHT22;42052;41.634;-0.946;2022-10-12T08:21:03;24.40;52.00
56172;DHT22;42052;41.634;-0.946;2022-10-12T08:23:29;24.30;52.10
56172;DHT22;42052;41.634;-0.946;2022-10-12T08:25:56;24.40;52.20
56172;DHT22;42052;41.634;-0.946;2022-10-12T08:28:23;24.40;52.20
56172;DHT22;42052;41.634;-0.946;2022-10-12T08:30:50;24.30;52.30
56172;DHT22;42052;41.634;-0.946;2022-10-12T08:33:16;24.40;52.30
56172;DHT22;42052;41.634;-0.946;2022-10-12T08:35:43;24.40;52.30
56172;DHT22;42052;41.634;-0.946;2022-10-12T08:38:10;24.50;52.40
56172;DHT22;42052;41.634;-0.946;2022-10-12T08:46:19;24.40;52.60
56172;DHT22;42052;41.634;-0.946;2022-10-12T08:48:51;24.40;52.80
56172;DHT22;42052;41.634;-0.946;2022-10-12T08:51:23;24.40;53.00
56172;DHT22;42052;41.634;-0.946;2022-10-12T08:54:04;24.40;52.70
56172;DHT22;42052;41.634;-0.946;2022-10-12T08:56:31;24.40;52.60
56172;DHT22;42052;41.634;-0.946;2022-10-12T08:59:00;24.50;52.60
56172;DHT22;42052;41.634;-0.946;2022-10-12T09:04:38;24.40;53.00
56172;DHT22;42052;41.634;-0.946;2022-10-12T09:15:08;24.50;53.30
56172;DHT22;42052;41.634;-0.946;2022-10-12T09:17:40;24.40;53.30
56172;DHT22;42052;41.634;-0.946;2022-10-12T09:20:17;24.40;53.50
56172;DHT22;42052;41.634;-0.946;2022-10-12T09:22:49;24.40;53.50
56172;DHT22;42052;41.634;-0.946;2022-10-12T09:25:17;24.50;53.40
56172;DHT22;42052;41.634;-0.946;2022-10-12T09:27:45;24.40;53.40
56172;DHT22;42052;41.634;-0.946;2022-10-12T09:30:14;24.50;53.50
56172;DHT22;42052;41.634;-0.946;2022-10-12T09:35:21;24.50;53.50
56172;DHT22;42052;41.634;-0.946;2022-10-12T09:37:51;24.50;53.40
56172;DHT22;42052;41.634;-0.946;2022-10-12T09:40:24;24.60;53.40
56172;DHT22;42052;41.634;-0.946;2022-10-12T09:42:51;24.50;53.50
56172;DHT22;42052;41.634;-0.946;2022-10-12T09:45:20;24.50;53.50
56172;DHT22;42052;41.634;-0.946;2022-10-12T09:48:15;24.50;53.50
56172;DHT22;42052;41.634;-0.946;2022-10-12T09:53:34;24.60;53.60
56172;DHT22;42052;41.634;-0.946;2022-10-12T09:56:11;24.60;53.50
56172;DHT22;42052;41.634;-0.946;2022-10-12T09:58:48;24.60;53.50
56172;DHT22;42052;41.634;-0.946;2022-10-12T10:03:48;24.60;53.70
56172;DHT22;42052;41.634;-0.946;2022-10-12T10:06:22;24.50;53.50
56172;DHT22;42052;41.634;-0.946;2022-10-12T10:08:49;24.50;53.50
56172;DHT22;42052;41.634;-0.946;2022-10-12T10:11:20;24.50;53.30
56172;DHT22;42052;41.634;-0.946;2022-10-12T10:13:52;24.60;53.30
56172;DHT22;42052;41.634;-0.946;2022-10-12T10:16:20;24.50;53.40
56172;DHT22;42052;41.634;-0.946;2022-10-12T10:21:37;24.50;53.30
56172;DHT22;42052;41.634;-0.946;2022-10-12T10:24:24;24.50;53.50
56172;DHT22;42052;41.634;-0.946;2022-10-12T10:26:59;24.50;53.20
56172;DHT22;42052;41.634;-0.946;2022-10-12T10:37:48;24.60;53.00
56172;DHT22;42052;41.634;-0.946;2022-10-12T10:40:23;24.60;53.00
56172;DHT22;42052;41.634;-0.946;2022-10-12T10:43:00;24.50;53.00
56172;DHT22;42052;41.634;-0.946;2022-10-12T10:45:42;24.50;52.90
56172;DHT22;42052;41.634;-0.946;2022-10-12T10:48:21;24.60;53.00
56172;DHT22;42052;41.634;-0.946;2022-10-12T10:51:02;24.60;52.60
56172;DHT22;42052;41.634;-0.946;2022-10-12T10:53:42;24.50;52.50
56172;DHT22;42052;41.634;-0.946;2022-10-12T10:58:45;24.60;52.40
56172;DHT22;42052;41.634;-0.946;2022-10-12T11:02:07;24.60;52.40
56172;DHT22;42052;41.634;-0.946;2022-10-12T11:04:41;24.60;52.20
56172;DHT22;42052;41.634;-0.946;2022-10-12T11:07:11;24.60;52.20
56172;DHT22;42052;41.634;-0.946;2022-10-12T11:09:44;24.60;52.20
56172;DHT22;42052;41.634;-0.946;2022-10-12T11:15:21;24.70;52.40
56172;DHT22;42052;41.634;-0.946;2022-10-12T11:17:51;24.70;52.00
56172;DHT22;42052;41.634;-0.946;2022-10-12T11:25:41;24.70;52.20
56172;DHT22;42052;41.634;-0.946;2022-10-12T11:28:13;24.60;52.20
56172;DHT22;42052;41.634;-0.946;2022-10-12T11:30:44;24.60;52.20
56172;DHT22;42052;41.634;-0.946;2022-10-12T11:33:21;24.70;52.10
56172;DHT22;42052;41.634;-0.946;2022-10-12T11:35:48;24.70;52.10
56172;DHT22;42052;41.634;-0.946;2022-10-12T11:38:24;24.70;52.00
56172;DHT22;42052;41.634;-0.946;2022-10-12T11:41:23;24.70;52.00
56172;DHT22;42052;41.634;-0.946;2022-10-12T11:43:57;24.70;52.10
56172;DHT22;42052;41.634;-0.946;2022-10-12T11:46:33;24.70;52.00
56172;DHT22;42052;41.634;-0.946;2022-10-12T11:49:07;24.70;52.10
56172;DHT22;42052;41.634;-0.946;2022-10-12T11:51:36;24.80;52.10
56172;DHT22;42052;41.634;-0.946;2022-10-12T11:54:07;24.80;51.80
56172;DHT22;42052;41.634;-0.946;2022-10-12T11:56:45;24.80;51.80
56172;DHT22;42052;41.634;-0.946;2022-10-12T11:59:34;24.80;51.80
56172;DHT22;42052;41.634;-0.946;2022-10-12T12:05:04;24.80;51.80
56172;DHT22;42052;41.634;-0.946;2022-10-12T12:07:54;24.90;51.80
56172;DHT22;42052;41.634;-0.946;2022-10-12T12:13:07;24.80;51.80
56172;DHT22;42052;41.634;-0.946;2022-10-12T12:15:37;24.90;51.80
56172;DHT22;42052;41.634;-0.946;2022-10-12T12:33:48;24.90;51.00
56172;DHT22;42052;41.634;-0.946;2022-10-12T12:36:44;24.90;51.10
56172;DHT22;42052;41.634;-0.946;2022-10-12T12:39:31;24.90;51.40
56172;DHT22;42052;41.634;-0.946;2022-10-12T12:42:02;25.00;51.20
56172;DHT22;42052;41.634;-0.946;2022-10-12T12:52:27;25.10;50.90
56172;DHT22;42052;41.634;-0.946;2022-10-12T13:16:53;25.20;50.50
56172;DHT22;42052;41.634;-0.946;2022-10-12T13:19:23;25.20;50.30
56172;DHT22;42052;41.634;-0.946;2022-10-12T13:21:51;25.10;50.00
56172;DHT22;42052;41.634;-0.946;2022-10-12T13:24:37;25.20;50.30
56172;DHT22;42052;41.634;-0.946;2022-10-12T13:27:32;25.20;50.20
56172;DHT22;42052;41.634;-0.946;2022-10-12T13:35:35;25.10;50.00
56172;DHT22;42052;41.634;-0.946;2022-10-12T13:38:24;25.20;50.20
56172;DHT22;42052;41.634;-0.946;2022-10-12T13:43:51;25.20;49.60
56172;DHT22;42052;41.634;-0.946;2022-10-12T13:46:41;25.10;49.80
56172;DHT22;42052;41.634;-0.946;2022-10-12T13:49:20;25.20;49.70
56172;DHT22;42052;41.634;-0.946;2022-10-12T13:59:54;25.10;49.60
56172;DHT22;42052;41.634;-0.946;2022-10-12T14:02:30;25.20;49.50
56172;DHT22;42052;41.634;-0.946;2022-10-12T14:04:58;25.10;48.50
56172;DHT22;42052;41.634;-0.946;2022-10-12T14:07:32;25.10;48.20
56172;DHT22;42052;41.634;-0.946;2022-10-12T14:10:17;25.10;49.00
56172;DHT22;42052;41.634;-0.946;2022-10-12T14:12:49;25.20;49.40
56172;DHT22;42052;41.634;-0.946;2022-10-12T14:15:16;25.20;49.20
56172;DHT22;42052;41.634;-0.946;2022-10-12T14:17:45;25.20;49.30
56172;DHT22;42052;41.634;-0.946;2022-10-12T14:20:25;25.30;49.10
56172;DHT22;42052;41.634;-0.946;2022-10-12T14:22:52;25.30;49.10
56172;DHT22;42052;41.634;-0.946;2022-10-12T14:25:24;25.20;48.50
56172;DHT22;42052;41.634;-0.946;2022-10-12T14:30:24;25.20;49.10
56172;DHT22;42052;41.634;-0.946;2022-10-12T14:32:54;25.30;49.10
56172;DHT22;42052;41.634;-0.946;2022-10-12T14:35:28;25.30;48.90
56172;DHT22;42052;41.634;-0.946;2022-10-12T14:37:55;25.30;48.50
56172;DHT22;42052;41.634;-0.946;2022-10-12T14:40:30;25.20;48.50
56172;DHT22;42052;41.634;-0.946;2022-10-12T14:43:03;25.20;48.30
56172;DHT22;42052;41.634;-0.946;2022-10-12T14:45:31;25.20;47.80
56172;DHT22;42052;41.634;-0.946;2022-10-12T14:47:57;25.20;47.30
56172;DHT22;42052;41.634;-0.946;2022-10-12T14:50:25;25.20;47.10
56172;DHT22;42052;41.634;-0.946;2022-10-12T14:52:56;25.20;47.70
56172;DHT22;42052;41.634;-0.946;2022-10-12T14:55:26;25.30;47.80
56172;DHT22;42052;41.634;-0.946;2022-10-12T14:57:52;25.30;48.00
56172;DHT22;42052;41.634;-0.946;2022-10-12T15:00:21;25.30;48.20
56172;DHT22;42052;41.634;-0.946;2022-10-12T15:02:47;25.30;48.20
56172;DHT22;42052;41.634;-0.946;2022-10-12T15:05:16;25.30;48.10
56172;DHT22;42052;41.634;-0.946;2022-10-12T15:07:42;25.30;48.30
56172;DHT22;42052;41.634;-0.946;2022-10-12T15:10:09;25.30;48.40
56172;DHT22;42052;41.634;-0.946;2022-10-12T15:12:35;25.30;48.30
56172;DHT22;42052;41.634;-0.946;2022-10-12T15:17:51;25.30;49.20
56172;DHT22;42052;41.634;-0.946;2022-10-12T15:20:17;25.30;48.50
56172;DHT22;42052;41.634;-0.946;2022-10-12T15:22:44;25.30;48.60
56172;DHT22;42052;41.634;-0.946;2022-10-12T15:28:00;25.30;48.60
56172;DHT22;42052;41.634;-0.946;2022-10-12T15:30:26;25.30;48.70
56172;DHT22;42052;41.634;-0.946;2022-10-12T15:32:52;25.30;48.70
56172;DHT22;42052;41.634;-0.946;2022-10-12T15:35:26;25.30;48.80
56172;DHT22;42052;41.634;-0.946;2022-10-12T15:37:53;25.30;48.70
56172;DHT22;42052;41.634;-0.946;2022-10-12T15:40:21;25.30;48.80
56172;DHT22;42052;41.634;-0.946;2022-10-12T15:42:47;25.30;48.90
56172;DHT22;42052;41.634;-0.946;2022-10-12T15:45:26;25.30;48.80
56172;DHT22;42052;41.634;-0.946;2022-10-12T15:47:53;25.30;49.00
56172;DHT22;42052;41.634;-0.946;2022-10-12T15:50:22;25.30;49.00
56172;DHT22;42052;41.634;-0.946;2022-10-12T15:52:49;25.30;49.00
56172;DHT22;42052;41.634;-0.946;2022-10-12T15:55:32;25.30;49.10
56172;DHT22;42052;41.634;-0.946;2022-10-12T15:57:59;25.30;49.20
56172;DHT22;42052;41.634;-0.946;2022-10-12T16:00:26;25.30;49.20
56172;DHT22;42052;41.634;-0.946;2022-10-12T16:02:54;25.30;49.20
56172;DHT22;42052;41.634;-0.946;2022-10-12T16:07:55;25.30;49.30
56172;DHT22;42052;41.634;-0.946;2022-10-12T16:10:24;25.30;49.20
56172;DHT22;42052;41.634;-0.946;2022-10-12T16:12:52;25.30;49.40
56172;DHT22;42052;41.634;-0.946;2022-10-12T16:15:24;25.30;49.30
56172;DHT22;42052;41.634;-0.946;2022-10-12T16:17:51;25.30;49.40
56172;DHT22;42052;41.634;-0.946;2022-10-12T16:20:17;25.30;49.30
56172;DHT22;42052;41.634;-0.946;2022-10-12T16:22:44;25.40;49.50
56172;DHT22;42052;41.634;-0.946;2022-10-12T16:25:11;25.40;49.60
56172;DHT22;42052;41.634;-0.946;2022-10-12T16:27:38;25.30;49.50
56172;DHT22;42052;41.634;-0.946;2022-10-12T16:30:05;25.40;49.60
56172;DHT22;42052;41.634;-0.946;2022-10-12T16:32:32;25.40;49.60
56172;DHT22;42052;41.634;-0.946;2022-10-12T16:34:58;25.40;49.60
56172;DHT22;42052;41.634;-0.946;2022-10-12T16:37:24;25.30;49.50
56172;DHT22;42052;41.634;-0.946;2022-10-12T16:39:52;25.40;49.70
56172;DHT22;42052;41.634;-0.946;2022-10-12T16:42:19;25.40;49.70
56172;DHT22;42052;41.634;-0.946;2022-10-12T16:44:45;25.40;49.80
56172;DHT22;42052;41.634;-0.946;2022-10-12T16:47:11;25.40;49.70
56172;DHT22;42052;41.634;-0.946;2022-10-12T16:49:38;25.40;49.70
56172;DHT22;42052;41.634;-0.946;2022-10-12T16:52:05;25.40;49.80
56172;DHT22;42052;41.634;-0.946;2022-10-12T16:54:31;25.40;49.90
56172;DHT22;42052;41.634;-0.946;2022-10-12T16:56:57;25.40;49.90
56172;DHT22;42052;41.634;-0.946;2022-10-12T16:59:24;25.40;49.90
56172;DHT22;42052;41.634;-0.946;2022-10-12T17:01:50;25.40;49.90
56172;DHT22;42052;41.634;-0.946;2022-10-12T17:04:16;25.40;49.80
56172;DHT22;42052;41.634;-0.946;2022-10-12T17:06:43;25.40;50.00
56172;DHT22;42052;41.634;-0.946;2022-10-12T17:09:09;25.40;50.00
56172;DHT22;42052;41.634;-0.946;2022-10-12T17:11:36;25.40;50.00
56172;DHT22;42052;41.634;-0.946;2022-10-12T17:14:07;25.40;50.00
56172;DHT22;42052;41.634;-0.946;2022-10-12T17:16:33;25.40;49.90
56172;DHT22;42052;41.634;-0.946;2022-10-12T17:19:24;25.40;50.30
56172;DHT22;42052;41.634;-0.946;2022-10-12T17:21:50;25.40;50.00
56172;DHT22;42052;41.634;-0.946;2022-10-12T17:24:19;25.40;50.00
56172;DHT22;42052;41.634;-0.946;2022-10-12T17:26:46;25.40;50.00
56172;DHT22;42052;41.634;-0.946;2022-10-12T17:29:15;25.40;50.00
56172;DHT22;42052;41.634;-0.946;2022-10-12T17:31:43;25.40;50.00
56172;DHT22;42052;41.634;-0.946;2022-10-12T17:34:33;25.40;50.10
56172;DHT22;42052;41.634;-0.946;2022-10-12T17:37:00;25.40;50.00
56172;DHT22;42052;41.634;-0.946;2022-10-12T17:39:32;25.40;50.10
56172;DHT22;42052;41.634;-0.946;2022-10-12T17:41:58;25.40;50.10
56172;DHT22;42052;41.634;-0.946;2022-10-12T17:44:24;25.40;50.10
56172;DHT22;42052;41.634;-0.946;2022-10-12T17:46:50;25.40;50.10
56172;DHT22;42052;41.634;-0.946;2022-10-12T17:49:17;25.40;50.10
56172;DHT22;42052;41.634;-0.946;2022-10-12T17:51:44;25.40;50.10
56172;DHT22;42052;41.634;-0.946;2022-10-12T17:54:14;25.40;50.10
56172;DHT22;42052;41.634;-0.946;2022-10-12T17:56:41;25.40;50.10
56172;DHT22;42052;41.634;-0.946;2022-10-12T17:59:07;25.40;50.10
56172;DHT22;42052;41.634;-0.946;2022-10-12T18:01:33;25.40;50.20
56172;DHT22;42052;41.634;-0.946;2022-10-12T18:04:00;25.40;50.10
56172;DHT22;42052;41.634;-0.946;2022-10-12T18:06:27;25.40;50.20
56172;DHT22;42052;41.634;-0.946;2022-10-12T18:08:54;25.40;50.20
56172;DHT22;42052;41.634;-0.946;2022-10-12T18:11:23;25.40;50.20
56172;DHT22;42052;41.634;-0.946;2022-10-12T18:13:52;25.40;50.20